sensor_id;sensor_type;location;lat;lon;timestamp;temperature;humidity
10812;DHT22;5458;51.496;7.334;2023-02-01T00:01:20;6.70;99.90
10812;DHT22;5458;51.496;7.334;2023-02-01T00:03:45;6.80;99.90
10812;DHT22;5458;51.496;7.334;2023-02-01T00:06:11;6.80;99.90
10812;DHT22;5458;51.496;7.334;2023-02-01T00:08:36;6.80;99.90
10812;DHT22;5458;51.496;7.334;2023-02-01T00:11:04;6.80;99.90
10812;DHT22;5458;51.496;7.334;2023-02-01T00:13:32;6.80;99.90
10812;DHT22;5458;51.496;7.334;2023-02-01T00:16:20;6.90;99.90
10812;DHT22;5458;51.496;7.334;2023-02-01T00:18:48;7.00;99.90
10812;DHT22;5458;51.496;7.334;2023-02-01T00:21:16;6.90;99.90
10812;DHT22;5458;51.496;7.334;2023-02-01T00:23:42;6.90;99.90
10812;DHT22;5458;51.496;7.334;2023-02-01T00:26:20;6.90;99.90
10812;DHT22;5458;51.496;7.334;2023-02-01T00:28:46;6.90;99.90
10812;DHT22;5458;51.496;7.334;2023-02-01T00:31:12;6.90;99.90
10812;DHT22;5458;51.496;7.334;2023-02-01T00:33:37;6.90;99.90
10812;DHT22;5458;51.496;7.334;2023-02-01T00:36:05;6.90;99.90
10812;DHT22;5458;51.496;7.334;2023-02-01T00:38:32;6.90;99.90
10812;DHT22;5458;51.496;7.334;2023-02-01T00:41:07;6.80;99.90
10812;DHT22;5458;51.496;7.334;2023-02-01T00:43:34;6.80;99.90
10812;DHT22;5458;51.496;7.334;2023-02-01T00:46:00;6.90;99.90
10812;DHT22;5458;51.496;7.334;2023-02-01T00:48:26;6.90;99.90
10812;DHT22;5458;51.496;7.334;2023-02-01T00:50:52;6.90;99.90
10812;DHT22;5458;51.496;7.334;2023-02-01T00:53:18;6.90;99.90
10812;DHT22;5458;51.496;7.334;2023-02-01T00:55:49;6.90;99.90
10812;DHT22;5458;51.496;7.334;2023-02-01T00:58:15;7.00;99.90
10812;DHT22;5458;51.496;7.334;2023-02-01T01:00:40;7.00;99.90
10812;DHT22;5458;51.496;7.334;2023-02-01T01:03:06;6.90;99.90
10812;DHT22;5458;51.496;7.334;2023-02-01T01:05:49;6.90;99.90
10812;DHT22;5458;51.496;7.334;2023-02-01T01:08:16;6.90;99.90
10812;DHT22;5458;51.496;7.334;2023-02-01T01:10:42;6.90;99.90
10812;DHT22;5458;51.496;7.334;2023-02-01T01:13:08;7.00;99.90
10812;DHT22;5458;51.496;7.334;2023-02-01T01:15:38;7.00;99.90
10812;DHT22;5458;51.496;7.334;2023-02-01T01:18:04;6.90;99.90
10812;DHT22;5458;51.496;7.334;2023-02-01T01:20:30;6.90;99.90
10812;DHT22;5458;51.496;7.334;2023-02-01T01:22:56;7.00;99.90
10812;DHT22;5458;51.496;7.334;2023-02-01T01:25:21;7.00;99.90
10812;DHT22;5458;51.496;7.334;2023-02-01T01:27:47;7.00;99.90
10812;DHT22;5458;51.496;7.334;2023-02-01T01:30:13;6.90;99.90
10812;DHT22;5458;51.496;7.334;2023-02-01T01:32:38;6.90;99.90
10812;DHT22;5458;51.496;7.334;2023-02-01T01:35:04;6.90;99.90
10812;DHT22;5458;51.496;7.334;2023-02-01T01:37:31;6.90;99.90
10812;DHT22;5458;51.496;7.334;2023-02-01T01:39:57;6.90;99.90
10812;DHT22;5458;51.496;7.334;2023-02-01T01:42:23;6.90;99.90
10812;DHT22;5458;51.496;7.334;2023-02-01T01:47:38;6.90;99.90
10812;DHT22;5458;51.496;7.334;2023-02-01T01:50:08;7.00;99.90
10812;DHT22;5458;51.496;7.334;2023-02-01T01:52:37;6.90;99.90
10812;DHT22;5458;51.496;7.334;2023-02-01T01:55:03;6.90;99.90
10812;DHT22;5458;51.496;7.334;2023-02-01T01:57:34;7.00;99.90
10812;DHT22;5458;51.496;7.334;2023-02-01T02:00:07;6.90;99.90
10812;DHT22;5458;51.496;7.334;2023-02-01T02:02:34;7.00;99.90
10812;DHT22;5458;51.496;7.334;2023-02-01T02:05:00;6.90;99.90
10812;DHT22;5458;51.496;7.334;2023-02-01T02:07:30;7.00;99.90
10812;DHT22;5458;51.496;7.334;2023-02-01T02:09:56;7.00;99.90
10812;DHT22;5458;51.496;7.334;2023-02-01T02:12:22;7.00;99.90
10812;DHT22;5458;51.496;7.334;2023-02-01T02:14:48;7.00;99.90
10812;DHT22;5458;51.496;7.334;2023-02-01T02:17:44;6.90;99.90
10812;DHT22;5458;51.496;7.334;2023-02-01T02:26:34;6.90;99.90
10812;DHT22;5458;51.496;7.334;2023-02-01T02:37:38;7.00;99.90
10812;DHT22;5458;51.496;7.334;2023-02-01T02:40:21;6.90;99.90
10812;DHT22;5458;51.496;7.334;2023-02-01T02:43:09;6.90;99.90
10812;DHT22;5458;51.496;7.334;2023-02-01T02:46:15;6.90;99.90
10812;DHT22;5458;51.496;7.334;2023-02-01T02:49:20;6.90;99.90
10812;DHT22;5458;51.496;7.334;2023-02-01T02:51:58;6.90;99.90
10812;DHT22;5458;51.496;7.334;2023-02-01T02:54:47;7.00;99.90
10812;DHT22;5458;51.496;7.334;2023-02-01T02:57:20;6.90;99.90
10812;DHT22;5458;51.496;7.334;2023-02-01T03:00:10;6.90;99.90
10812;DHT22;5458;51.496;7.334;2023-02-01T03:02:55;6.80;99.90
10812;DHT22;5458;51.496;7.334;2023-02-01T03:05:47;6.80;99.90
10812;DHT22;5458;51.496;7.334;2023-02-01T03:08:19;6.80;99.90
10812;DHT22;5458;51.496;7.334;2023-02-01T03:11:07;6.80;99.90
10812;DHT22;5458;51.496;7.334;2023-02-01T03:13:54;6.80;99.90
10812;DHT22;5458;51.496;7.334;2023-02-01T03:16:34;6.80;99.90
10812;DHT22;5458;51.496;7.334;2023-02-01T03:22:04;6.70;99.90
10812;DHT22;5458;51.496;7.334;2023-02-01T03:24:50;6.70;99.90
10812;DHT22;5458;51.496;7.334;2023-02-01T03:29:59;6.70;99.90
10812;DHT22;5458;51.496;7.334;2023-02-01T03:32:26;6.70;99.90
10812;DHT22;5458;51.496;7.334;2023-02-01T03:34:52;6.70;99.90
10812;DHT22;5458;51.496;7.334;2023-02-01T03:37:26;6.70;99.90
10812;DHT22;5458;51.496;7.334;2023-02-01T03:40:06;6.70;99.90
10812;DHT22;5458;51.496;7.334;2023-02-01T03:42:37;6.70;99.90
10812;DHT22;5458;51.496;7.334;2023-02-01T03:45:13;6.70;99.90
10812;DHT22;5458;51.496;7.334;2023-02-01T03:47:48;6.70;99.90
10812;DHT22;5458;51.496;7.334;2023-02-01T03:50:18;6.70;99.90
10812;DHT22;5458;51.496;7.334;2023-02-01T03:52:51;6.70;99.90
10812;DHT22;5458;51.496;7.334;2023-02-01T03:55:20;6.70;99.90
10812;DHT22;5458;51.496;7.334;2023-02-01T03:57:52;6.70;99.90
10812;DHT22;5458;51.496;7.334;2023-02-01T04:00:22;6.80;99.90
10812;DHT22;5458;51.496;7.334;2023-02-01T04:02:48;6.70;99.90
10812;DHT22;5458;51.496;7.334;2023-02-01T04:05:14;6.70;99.90
10812;DHT22;5458;51.496;7.334;2023-02-01T04:07:40;6.70;99.90
10812;DHT22;5458;51.496;7.334;2023-02-01T04:10:06;6.70;99.90
10812;DHT22;5458;51.496;7.334;2023-02-01T04:12:31;6.70;99.90
10812;DHT22;5458;51.496;7.334;2023-02-01T04:14:57;6.60;99.90
10812;DHT22;5458;51.496;7.334;2023-02-01T04:17:23;6.70;99.90
10812;DHT22;5458;51.496;7.334;2023-02-01T04:19:49;6.70;99.90
10812;DHT22;5458;51.496;7.334;2023-02-01T04:22:15;6.70;99.90
10812;DHT22;5458;51.496;7.334;2023-02-01T04:24:41;6.70;99.90
10812;DHT22;5458;51.496;7.334;2023-02-01T04:27:06;6.70;99.90
10812;DHT22;5458;51.496;7.334;2023-02-01T04:29:32;6.80;99.90
10812;DHT22;5458;51.496;7.334;2023-02-01T04:31:57;6.70;99.90
10812;DHT22;5458;51.496;7.334;2023-02-01T04:34:23;6.80;99.90
10812;DHT22;5458;51.496;7.334;2023-02-01T04:36:50;6.80;99.90
10812;DHT22;5458;51.496;7.334;2023-02-01T04:39:16;6.90;99.90
10812;DHT22;5458;51.496;7.334;2023-02-01T04:41:41;6.80;99.90
10812;DHT22;5458;51.496;7.334;2023-02-01T04:44:13;6.80;99.90
10812;DHT22;5458;51.496;7.334;2023-02-01T04:46:39;6.80;99.90
10812;DHT22;5458;51.496;7.334;2023-02-01T04:49:04;6.80;99.90
10812;DHT22;5458;51.496;7.334;2023-02-01T04:51:30;6.80;99.90
10812;DHT22;5458;51.496;7.334;2023-02-01T04:53:55;6.80;99.90
10812;DHT22;5458;51.496;7.334;2023-02-01T04:56:21;6.80;99.90
10812;DHT22;5458;51.496;7.334;2023-02-01T04:58:47;6.80;99.90
10812;DHT22;5458;51.496;7.334;2023-02-01T05:01:13;6.70;99.90
10812;DHT22;5458;51.496;7.334;2023-02-01T05:03:38;6.80;99.90
10812;DHT22;5458;51.496;7.334;2023-02-01T05:06:04;6.80;99.90
10812;DHT22;5458;51.496;7.334;2023-02-01T05:08:30;6.70;99.90
10812;DHT22;5458;51.496;7.334;2023-02-01T05:10:56;6.70;99.90
10812;DHT22;5458;51.496;7.334;2023-02-01T05:13:22;6.80;99.90
10812;DHT22;5458;51.496;7.334;2023-02-01T05:16:06;6.70;99.90
10812;DHT22;5458;51.496;7.334;2023-02-01T05:18:32;6.80;99.90
10812;DHT22;5458;51.496;7.334;2023-02-01T05:20:57;6.80;99.90
10812;DHT22;5458;51.496;7.334;2023-02-01T05:23:23;6.80;99.90
10812;DHT22;5458;51.496;7.334;2023-02-01T05:25:48;6.80;99.90
10812;DHT22;5458;51.496;7.334;2023-02-01T05:28:14;6.80;99.90
10812;DHT22;5458;51.496;7.334;2023-02-01T05:30:40;6.80;99.90
10812;DHT22;5458;51.496;7.334;2023-02-01T05:33:05;6.70;99.90
10812;DHT22;5458;51.496;7.334;2023-02-01T05:35:31;6.80;99.90
10812;DHT22;5458;51.496;7.334;2023-02-01T05:37:56;6.70;99.90
10812;DHT22;5458;51.496;7.334;2023-02-01T05:40:22;6.80;99.90
10812;DHT22;5458;51.496;7.334;2023-02-01T05:42:47;6.70;99.90
10812;DHT22;5458;51.496;7.334;2023-02-01T05:45:13;6.70;99.90
10812;DHT22;5458;51.496;7.334;2023-02-01T05:47:39;6.80;99.90
10812;DHT22;5458;51.496;7.334;2023-02-01T05:50:05;6.80;99.90
10812;DHT22;5458;51.496;7.334;2023-02-01T05:52:31;6.80;99.90
10812;DHT22;5458;51.496;7.334;2023-02-01T05:54:56;6.80;99.90
10812;DHT22;5458;51.496;7.334;2023-02-01T05:57:22;6.80;99.90
10812;DHT22;5458;51.496;7.334;2023-02-01T05:59:47;6.70;99.90
10812;DHT22;5458;51.496;7.334;2023-02-01T06:02:15;6.70;99.90
10812;DHT22;5458;51.496;7.334;2023-02-01T06:04:40;6.70;99.90
10812;DHT22;5458;51.496;7.334;2023-02-01T06:07:07;6.70;99.90
10812;DHT22;5458;51.496;7.334;2023-02-01T06:09:35;6.70;99.90
10812;DHT22;5458;51.496;7.334;2023-02-01T06:12:00;6.60;99.90
10812;DHT22;5458;51.496;7.334;2023-02-01T06:14:27;6.60;99.90
10812;DHT22;5458;51.496;7.334;2023-02-01T06:16:53;6.70;99.90
10812;DHT22;5458;51.496;7.334;2023-02-01T06:19:19;6.60;99.90
10812;DHT22;5458;51.496;7.334;2023-02-01T06:21:45;6.60;99.90
10812;DHT22;5458;51.496;7.334;2023-02-01T06:24:11;6.60;99.90
10812;DHT22;5458;51.496;7.334;2023-02-01T06:26:36;6.60;99.90
10812;DHT22;5458;51.496;7.334;2023-02-01T06:29:02;6.70;99.90
10812;DHT22;5458;51.496;7.334;2023-02-01T06:31:28;6.70;99.90
10812;DHT22;5458;51.496;7.334;2023-02-01T06:33:53;6.70;99.90
10812;DHT22;5458;51.496;7.334;2023-02-01T06:36:19;6.70;99.90
10812;DHT22;5458;51.496;7.334;2023-02-01T06:38:47;6.70;99.90
10812;DHT22;5458;51.496;7.334;2023-02-01T06:41:12;6.70;99.90
10812;DHT22;5458;51.496;7.334;2023-02-01T06:43:38;6.70;99.90
10812;DHT22;5458;51.496;7.334;2023-02-01T06:46:10;6.70;99.90
10812;DHT22;5458;51.496;7.334;2023-02-01T06:48:36;6.80;99.90
10812;DHT22;5458;51.496;7.334;2023-02-01T06:51:02;6.70;99.90
10812;DHT22;5458;51.496;7.334;2023-02-01T06:53:28;6.80;99.90
10812;DHT22;5458;51.496;7.334;2023-02-01T06:55:59;6.80;99.90
10812;DHT22;5458;51.496;7.334;2023-02-01T06:58:28;6.80;99.90
10812;DHT22;5458;51.496;7.334;2023-02-01T07:00:54;6.80;99.90
10812;DHT22;5458;51.496;7.334;2023-02-01T07:03:20;6.80;99.90
10812;DHT22;5458;51.496;7.334;2023-02-01T07:05:45;6.80;99.90
10812;DHT22;5458;51.496;7.334;2023-02-01T07:08:11;6.80;99.90
10812;DHT22;5458;51.496;7.334;2023-02-01T07:10:37;6.80;99.90
10812;DHT22;5458;51.496;7.334;2023-02-01T07:13:03;6.80;99.90
10812;DHT22;5458;51.496;7.334;2023-02-01T07:15:29;6.80;99.90
10812;DHT22;5458;51.496;7.334;2023-02-01T07:17:55;6.80;99.90
10812;DHT22;5458;51.496;7.334;2023-02-01T07:20:21;6.80;99.90
10812;DHT22;5458;51.496;7.334;2023-02-01T07:22:46;6.80;99.90
10812;DHT22;5458;51.496;7.334;2023-02-01T07:25:12;6.80;99.90
10812;DHT22;5458;51.496;7.334;2023-02-01T07:27:38;6.80;99.90
10812;DHT22;5458;51.496;7.334;2023-02-01T07:30:04;6.80;99.90
10812;DHT22;5458;51.496;7.334;2023-02-01T07:32:30;6.80;99.90
10812;DHT22;5458;51.496;7.334;2023-02-01T07:34:56;6.90;99.90
10812;DHT22;5458;51.496;7.334;2023-02-01T07:37:22;6.80;99.90
10812;DHT22;5458;51.496;7.334;2023-02-01T07:39:52;6.80;99.90
10812;DHT22;5458;51.496;7.334;2023-02-01T07:42:18;6.90;99.90
10812;DHT22;5458;51.496;7.334;2023-02-01T07:44:43;6.90;99.90
10812;DHT22;5458;51.496;7.334;2023-02-01T07:47:09;6.90;99.90
10812;DHT22;5458;51.496;7.334;2023-02-01T07:49:34;6.90;99.90
10812;DHT22;5458;51.496;7.334;2023-02-01T07:52:00;6.90;99.90
10812;DHT22;5458;51.496;7.334;2023-02-01T07:54:26;6.90;99.90
10812;DHT22;5458;51.496;7.334;2023-02-01T07:56:51;6.90;99.90
10812;DHT22;5458;51.496;7.334;2023-02-01T07:59:17;6.90;99.90
10812;DHT22;5458;51.496;7.334;2023-02-01T08:01:42;7.00;99.90
10812;DHT22;5458;51.496;7.334;2023-02-01T08:04:11;6.90;99.90
10812;DHT22;5458;51.496;7.334;2023-02-01T08:06:37;6.90;99.90
10812;DHT22;5458;51.496;7.334;2023-02-01T08:09:06;7.00;99.90
10812;DHT22;5458;51.496;7.334;2023-02-01T08:11:33;6.90;99.90
10812;DHT22;5458;51.496;7.334;2023-02-01T08:13:58;6.90;99.90
10812;DHT22;5458;51.496;7.334;2023-02-01T08:16:25;7.00;99.90
10812;DHT22;5458;51.496;7.334;2023-02-01T08:18:51;7.00;99.90
10812;DHT22;5458;51.496;7.334;2023-02-01T08:21:20;7.00;99.90
10812;DHT22;5458;51.496;7.334;2023-02-01T08:23:47;7.00;99.90
10812;DHT22;5458;51.496;7.334;2023-02-01T08:28:53;7.10;99.90
10812;DHT22;5458;51.496;7.334;2023-02-01T08:31:20;7.10;99.90
10812;DHT22;5458;51.496;7.334;2023-02-01T08:33:51;7.10;99.90
10812;DHT22;5458;51.496;7.334;2023-02-01T08:36:18;7.10;99.90
10812;DHT22;5458;51.496;7.334;2023-02-01T08:38:44;7.00;99.90
10812;DHT22;5458;51.496;7.334;2023-02-01T08:41:15;7.10;99.90
10812;DHT22;5458;51.496;7.334;2023-02-01T08:43:42;7.10;99.90
10812;DHT22;5458;51.496;7.334;2023-02-01T08:46:08;7.10;99.90
10812;DHT22;5458;51.496;7.334;2023-02-01T08:48:35;7.10;99.90
10812;DHT22;5458;51.496;7.334;2023-02-01T08:51:03;7.10;99.90
10812;DHT22;5458;51.496;7.334;2023-02-01T08:53:29;7.10;99.90
10812;DHT22;5458;51.496;7.334;2023-02-01T08:55:54;7.10;99.90
10812;DHT22;5458;51.496;7.334;2023-02-01T08:58:20;7.10;99.90
10812;DHT22;5458;51.496;7.334;2023-02-01T09:00:47;7.20;99.90
10812;DHT22;5458;51.496;7.334;2023-02-01T09:03:14;7.30;99.90
10812;DHT22;5458;51.496;7.334;2023-02-01T09:05:40;7.40;99.90
10812;DHT22;5458;51.496;7.334;2023-02-01T09:08:06;7.50;99.90
10812;DHT22;5458;51.496;7.334;2023-02-01T09:10:32;7.60;99.90
10812;DHT22;5458;51.496;7.334;2023-02-01T09:12:58;7.60;99.90
10812;DHT22;5458;51.496;7.334;2023-02-01T09:15:23;7.50;99.90
10812;DHT22;5458;51.496;7.334;2023-02-01T09:17:49;7.50;99.90
10812;DHT22;5458;51.496;7.334;2023-02-01T09:20:15;7.50;99.90
10812;DHT22;5458;51.496;7.334;2023-02-01T09:22:41;7.40;99.90
10812;DHT22;5458;51.496;7.334;2023-02-01T09:25:07;7.40;99.90
10812;DHT22;5458;51.496;7.334;2023-02-01T09:27:33;7.40;99.90
10812;DHT22;5458;51.496;7.334;2023-02-01T09:29:59;7.50;99.90
10812;DHT22;5458;51.496;7.334;2023-02-01T09:32:24;7.50;99.90
10812;DHT22;5458;51.496;7.334;2023-02-01T09:34:51;7.40;99.90
10812;DHT22;5458;51.496;7.334;2023-02-01T09:37:17;7.40;99.90
10812;DHT22;5458;51.496;7.334;2023-02-01T09:39:43;7.40;99.90
10812;DHT22;5458;51.496;7.334;2023-02-01T09:47:29;7.40;99.90
10812;DHT22;5458;51.496;7.334;2023-02-01T09:52:31;7.50;99.90
10812;DHT22;5458;51.496;7.334;2023-02-01T09:55:03;7.50;99.90
10812;DHT22;5458;51.496;7.334;2023-02-01T09:58:29;7.50;99.90
10812;DHT22;5458;51.496;7.334;2023-02-01T10:00:38;7.50;99.90
10812;DHT22;5458;51.496;7.334;2023-02-01T10:03:04;7.60;99.90
10812;DHT22;5458;51.496;7.334;2023-02-01T10:08:19;7.60;99.90
10812;DHT22;5458;51.496;7.334;2023-02-01T10:10:49;7.60;99.90
10812;DHT22;5458;51.496;7.334;2023-02-01T10:13:41;7.50;99.90
10812;DHT22;5458;51.496;7.334;2023-02-01T10:19:10;7.50;99.90
10812;DHT22;5458;51.496;7.334;2023-02-01T10:21:52;7.50;99.90
10812;DHT22;5458;51.496;7.334;2023-02-01T10:24:34;7.50;99.90
10812;DHT22;5458;51.496;7.334;2023-02-01T10:27:17;7.50;99.90
10812;DHT22;5458;51.496;7.334;2023-02-01T10:29:45;7.60;99.90
10812;DHT22;5458;51.496;7.334;2023-02-01T10:32:19;7.70;99.90
10812;DHT22;5458;51.496;7.334;2023-02-01T10:34:55;7.60;99.90
10812;DHT22;5458;51.496;7.334;2023-02-01T10:37:28;7.70;99.90
10812;DHT22;5458;51.496;7.334;2023-02-01T10:39:55;7.60;99.90
10812;DHT22;5458;51.496;7.334;2023-02-01T10:42:25;7.60;99.90
10812;DHT22;5458;51.496;7.334;2023-02-01T10:44:52;7.60;99.90
10812;DHT22;5458;51.496;7.334;2023-02-01T10:47:18;7.60;99.90
10812;DHT22;5458;51.496;7.334;2023-02-01T10:49:55;7.60;99.90
10812;DHT22;5458;51.496;7.334;2023-02-01T10:58:00;7.60;99.90
10812;DHT22;5458;51.496;7.334;2023-02-01T11:00:27;7.60;99.90
10812;DHT22;5458;51.496;7.334;2023-02-01T11:02:53;7.60;99.90
10812;DHT22;5458;51.496;7.334;2023-02-01T11:05:19;7.60;99.90
10812;DHT22;5458;51.496;7.334;2023-02-01T11:07:53;7.60;99.90
10812;DHT22;5458;51.496;7.334;2023-02-01T11:10:39;7.60;99.90
10812;DHT22;5458;51.496;7.334;2023-02-01T11:13:13;7.60;99.90
10812;DHT22;5458;51.496;7.334;2023-02-01T11:15:46;7.60;99.90
10812;DHT22;5458;51.496;7.334;2023-02-01T11:18:21;7.60;99.90
10812;DHT22;5458;51.496;7.334;2023-02-01T11:20:50;7.50;99.90
10812;DHT22;5458;51.496;7.334;2023-02-01T11:23:20;7.60;99.90
10812;DHT22;5458;51.496;7.334;2023-02-01T11:25:49;7.60;99.90
10812;DHT22;5458;51.496;7.334;2023-02-01T11:28:16;7.60;99.90
10812;DHT22;5458;51.496;7.334;2023-02-01T11:30:44;7.70;99.90
10812;DHT22;5458;51.496;7.334;2023-02-01T11:33:24;7.80;99.90
10812;DHT22;5458;51.496;7.334;2023-02-01T11:35:53;7.80;99.90
10812;DHT22;5458;51.496;7.334;2023-02-01T11:38:29;7.80;99.90
10812;DHT22;5458;51.496;7.334;2023-02-01T11:40:55;7.70;99.90
10812;DHT22;5458;51.496;7.334;2023-02-01T11:43:35;7.80;99.90
10812;DHT22;5458;51.496;7.334;2023-02-01T11:46:03;7.80;99.90
10812;DHT22;5458;51.496;7.334;2023-02-01T11:48:33;7.80;99.90
10812;DHT22;5458;51.496;7.334;2023-02-01T12:01:30;7.80;99.90
10812;DHT22;5458;51.496;7.334;2023-02-01T12:15:08;7.60;99.90
10812;DHT22;5458;51.496;7.334;2023-02-01T12:26:53;7.50;99.90
10812;DHT22;5458;51.496;7.334;2023-02-01T12:35:38;7.50;99.90
10812;DHT22;5458;51.496;7.334;2023-02-01T12:41:01;7.50;99.90
10812;DHT22;5458;51.496;7.334;2023-02-01T12:46:31;7.50;99.90
10812;DHT22;5458;51.496;7.334;2023-02-01T12:49:04;7.50;99.90
10812;DHT22;5458;51.496;7.334;2023-02-01T12:51:39;7.50;99.90
10812;DHT22;5458;51.496;7.334;2023-02-01T12:54:18;7.50;99.90
10812;DHT22;5458;51.496;7.334;2023-02-01T12:56:51;7.50;99.90
10812;DHT22;5458;51.496;7.334;2023-02-01T12:59:26;7.60;99.90
10812;DHT22;5458;51.496;7.334;2023-02-01T13:04:59;7.60;99.90
10812;DHT22;5458;51.496;7.334;2023-02-01T13:07:41;7.60;99.90
10812;DHT22;5458;51.496;7.334;2023-02-01T13:10:22;7.60;99.90
10812;DHT22;5458;51.496;7.334;2023-02-01T13:12:58;7.60;99.90
10812;DHT22;5458;51.496;7.334;2023-02-01T13:15:31;7.60;99.90
10812;DHT22;5458;51.496;7.334;2023-02-01T13:18:02;7.60;99.90
10812;DHT22;5458;51.496;7.334;2023-02-01T13:20:32;7.60;99.90
10812;DHT22;5458;51.496;7.334;2023-02-01T13:23:10;7.70;99.90
10812;DHT22;5458;51.496;7.334;2023-02-01T13:25:47;7.70;99.90
10812;DHT22;5458;51.496;7.334;2023-02-01T13:28:25;7.70;99.90
10812;DHT22;5458;51.496;7.334;2023-02-01T13:45:19;7.80;99.90
10812;DHT22;5458;51.496;7.334;2023-02-01T13:47:47;7.70;99.90
10812;DHT22;5458;51.496;7.334;2023-02-01T13:50:25;7.80;99.90
10812;DHT22;5458;51.496;7.334;2023-02-01T13:52:55;7.80;99.90
10812;DHT22;5458;51.496;7.334;2023-02-01T13:57:51;7.80;99.90
10812;DHT22;5458;51.496;7.334;2023-02-01T14:00:44;7.80;99.90
10812;DHT22;5458;51.496;7.334;2023-02-01T14:03:18;7.80;99.90
10812;DHT22;5458;51.496;7.334;2023-02-01T14:08:14;7.90;99.90
10812;DHT22;5458;51.496;7.334;2023-02-01T14:10:57;7.90;99.90
10812;DHT22;5458;51.496;7.334;2023-02-01T14:13:29;7.90;99.90
10812;DHT22;5458;51.496;7.334;2023-02-01T14:23:53;8.00;99.90
10812;DHT22;5458;51.496;7.334;2023-02-01T14:32:01;8.10;99.90
10812;DHT22;5458;51.496;7.334;2023-02-01T14:42:43;8.10;99.90
10812;DHT22;5458;51.496;7.334;2023-02-01T14:50:43;8.10;99.90
10812;DHT22;5458;51.496;7.334;2023-02-01T15:01:32;8.10;99.90
10812;DHT22;5458;51.496;7.334;2023-02-01T15:04:15;8.10;99.90
10812;DHT22;5458;51.496;7.334;2023-02-01T15:07:03;8.10;99.90
10812;DHT22;5458;51.496;7.334;2023-02-01T15:14:42;8.10;99.90
10812;DHT22;5458;51.496;7.334;2023-02-01T15:17:31;8.10;99.90
10812;DHT22;5458;51.496;7.334;2023-02-01T15:20:02;8.10;99.90
10812;DHT22;5458;51.496;7.334;2023-02-01T15:22:30;8.00;99.90
10812;DHT22;5458;51.496;7.334;2023-02-01T15:24:59;8.10;99.90
10812;DHT22;5458;51.496;7.334;2023-02-01T15:27:26;8.00;99.90
10812;DHT22;5458;51.496;7.334;2023-02-01T15:29:52;8.10;99.90
10812;DHT22;5458;51.496;7.334;2023-02-01T15:32:35;8.00;99.90
10812;DHT22;5458;51.496;7.334;2023-02-01T15:35:01;8.10;99.90
10812;DHT22;5458;51.496;7.334;2023-02-01T15:37:28;8.10;99.90
10812;DHT22;5458;51.496;7.334;2023-02-01T15:42:37;8.10;99.90
10812;DHT22;5458;51.496;7.334;2023-02-01T15:45:13;8.00;99.90
10812;DHT22;5458;51.496;7.334;2023-02-01T15:47:41;8.00;99.90
10812;DHT22;5458;51.496;7.334;2023-02-01T15:50:16;8.00;99.90
10812;DHT22;5458;51.496;7.334;2023-02-01T15:52:47;8.10;99.90
10812;DHT22;5458;51.496;7.334;2023-02-01T15:55:40;8.10;99.90
10812;DHT22;5458;51.496;7.334;2023-02-01T15:58:08;8.10;99.90
10812;DHT22;5458;51.496;7.334;2023-02-01T16:00:52;8.10;99.90
10812;DHT22;5458;51.496;7.334;2023-02-01T16:03:35;8.10;99.90
10812;DHT22;5458;51.496;7.334;2023-02-01T16:06:06;8.20;99.90
10812;DHT22;5458;51.496;7.334;2023-02-01T16:08:33;8.20;99.90
10812;DHT22;5458;51.496;7.334;2023-02-01T16:13:35;8.20;99.90
10812;DHT22;5458;51.496;7.334;2023-02-01T16:16:01;8.20;99.90
10812;DHT22;5458;51.496;7.334;2023-02-01T16:18:27;8.20;99.90
10812;DHT22;5458;51.496;7.334;2023-02-01T16:20:52;8.20;99.90
10812;DHT22;5458;51.496;7.334;2023-02-01T16:23:18;8.20;99.90
10812;DHT22;5458;51.496;7.334;2023-02-01T16:25:46;8.20;99.90
10812;DHT22;5458;51.496;7.334;2023-02-01T16:28:11;8.10;99.90
10812;DHT22;5458;51.496;7.334;2023-02-01T16:30:37;8.20;99.90
10812;DHT22;5458;51.496;7.334;2023-02-01T16:33:03;8.20;99.90
10812;DHT22;5458;51.496;7.334;2023-02-01T16:35:33;8.20;99.90
10812;DHT22;5458;51.496;7.334;2023-02-01T16:38:14;8.20;99.90
10812;DHT22;5458;51.496;7.334;2023-02-01T16:40:42;8.20;99.90
10812;DHT22;5458;51.496;7.334;2023-02-01T16:43:13;8.20;99.90
10812;DHT22;5458;51.496;7.334;2023-02-01T16:45:40;8.20;99.90
10812;DHT22;5458;51.496;7.334;2023-02-01T16:48:07;8.20;99.90
10812;DHT22;5458;51.496;7.334;2023-02-01T16:50:33;8.20;99.90
10812;DHT22;5458;51.496;7.334;2023-02-01T16:52:59;8.10;99.90
10812;DHT22;5458;51.496;7.334;2023-02-01T16:55:26;8.10;99.90
10812;DHT22;5458;51.496;7.334;2023-02-01T16:57:53;8.00;99.90
10812;DHT22;5458;51.496;7.334;2023-02-01T17:00:18;8.00;99.90
10812;DHT22;5458;51.496;7.334;2023-02-01T17:02:45;8.00;99.90
10812;DHT22;5458;51.496;7.334;2023-02-01T17:05:11;7.90;99.90
10812;DHT22;5458;51.496;7.334;2023-02-01T17:07:38;7.90;99.90
10812;DHT22;5458;51.496;7.334;2023-02-01T17:10:08;7.90;99.90
10812;DHT22;5458;51.496;7.334;2023-02-01T17:12:37;7.90;99.90
10812;DHT22;5458;51.496;7.334;2023-02-01T17:15:03;7.70;99.90
10812;DHT22;5458;51.496;7.334;2023-02-01T17:17:37;7.50;99.90
10812;DHT22;5458;51.496;7.334;2023-02-01T17:20:04;7.30;99.90
10812;DHT22;5458;51.496;7.334;2023-02-01T17:22:31;7.20;99.90
10812;DHT22;5458;51.496;7.334;2023-02-01T17:24:56;7.20;99.90
10812;DHT22;5458;51.496;7.334;2023-02-01T17:27:22;7.10;99.90
10812;DHT22;5458;51.496;7.334;2023-02-01T17:29:48;7.10;99.90
10812;DHT22;5458;51.496;7.334;2023-02-01T17:32:24;7.00;99.90
10812;DHT22;5458;51.496;7.334;2023-02-01T17:34:50;7.00;99.90
10812;DHT22;5458;51.496;7.334;2023-02-01T17:37:28;7.00;99.90
10812;DHT22;5458;51.496;7.334;2023-02-01T17:39:53;7.00;99.90
10812;DHT22;5458;51.496;7.334;2023-02-01T17:42:19;6.90;99.90
10812;DHT22;5458;51.496;7.334;2023-02-01T17:44:46;6.90;99.90
10812;DHT22;5458;51.496;7.334;2023-02-01T17:47:11;6.90;99.90
10812;DHT22;5458;51.496;7.334;2023-02-01T17:49:37;6.90;99.90
10812;DHT22;5458;51.496;7.334;2023-02-01T17:52:04;6.90;99.90
10812;DHT22;5458;51.496;7.334;2023-02-01T17:54:30;7.00;99.90
10812;DHT22;5458;51.496;7.334;2023-02-01T17:56:56;7.00;99.90
10812;DHT22;5458;51.496;7.334;2023-02-01T17:59:25;7.00;99.90
10812;DHT22;5458;51.496;7.334;2023-02-01T18:01:51;7.10;99.90
10812;DHT22;5458;51.496;7.334;2023-02-01T18:04:18;7.10;99.90
10812;DHT22;5458;51.496;7.334;2023-02-01T18:06:44;7.20;99.90
10812;DHT22;5458;51.496;7.334;2023-02-01T18:09:09;7.20;99.90
10812;DHT22;5458;51.496;7.334;2023-02-01T18:11:35;7.30;99.90
10812;DHT22;5458;51.496;7.334;2023-02-01T18:14:01;7.30;99.90
10812;DHT22;5458;51.496;7.334;2023-02-01T18:16:28;7.30;99.90
10812;DHT22;5458;51.496;7.334;2023-02-01T18:18:54;7.40;99.90
10812;DHT22;5458;51.496;7.334;2023-02-01T18:21:30;7.40;99.90
10812;DHT22;5458;51.496;7.334;2023-02-01T18:23:56;7.40;99.90
10812;DHT22;5458;51.496;7.334;2023-02-01T18:26:22;7.40;99.90
10812;DHT22;5458;51.496;7.334;2023-02-01T18:28:48;7.40;99.90
10812;DHT22;5458;51.496;7.334;2023-02-01T18:31:22;7.40;99.90
10812;DHT22;5458;51.496;7.334;2023-02-01T18:33:52;7.40;99.90
10812;DHT22;5458;51.496;7.334;2023-02-01T18:36:18;7.40;99.90
10812;DHT22;5458;51.496;7.334;2023-02-01T18:38:44;7.20;99.90
10812;DHT22;5458;51.496;7.334;2023-02-01T18:41:13;6.90;99.90
10812;DHT22;5458;51.496;7.334;2023-02-01T18:43:40;6.50;99.90
10812;DHT22;5458;51.496;7.334;2023-02-01T18:46:08;6.30;99.90
10812;DHT22;5458;51.496;7.334;2023-02-01T18:48:34;6.10;99.90
10812;DHT22;5458;51.496;7.334;2023-02-01T18:51:00;6.10;99.90
10812;DHT22;5458;51.496;7.334;2023-02-01T18:53:26;6.10;99.90